PST,Max TemperatureF,Mean TemperatureF,Min TemperatureF,Max Dew PointF,MeanDew PointF,Min DewpointF,Max Humidity, Mean Humidity, Min Humidity, Max Sea Level PressureIn, Mean Sea Level PressureIn, Min Sea Level PressureIn, Max VisibilityMiles, Mean VisibilityMiles, Min VisibilityMiles, Max Wind SpeedMPH, Mean Wind SpeedMPH, Max Gust SpeedMPH,PrecipitationIn, CloudCover, Events, WindDirDegrees
2013-2-1,47,43,39,45,42,37,100,94,79,30.45,30.41,30.34,15,7,1,9,5,,0.02,7,Fog-Rain,231
2013-2-2,50,42,33,41,37,34,100,90,66,30.43,30.32,30.26,15,6,0,10,6,,0.00,4,Fog,343
2013-2-3,43,40,36,43,40,37,100,99,93,30.32,30.26,30.20,4,2,1,7,3,,0.12,8,Rain,215
2013-2-4,47,43,39,43,41,41,100,92,77,30.19,30.07,29.88,20,14,6,10,6,,0.02,8,Rain,258
2013-2-5,49,44,40,43,40,39,100,81,58,29.86,29.82,29.78,20,14,7,20,11,31,0.12,7,Rain,191
2013-2-6,48,44,40,41,39,36,100,86,62,30.01,29.94,29.82,20,12,7,18,9,24,0.16,8,Rain,165
2013-2-7,47,40,32,39,36,32,100,82,53,30.21,30.00,29.80,20,14,10,23,8,30,0.02,5,Rain,232
2013-2-8,42,36,29,37,34,30,100,91,73,30.32,30.28,30.22,20,14,10,5,1,,0.00,6,Fog,191
2013-2-9,43,39,35,37,36,34,100,89,71,30.36,30.31,30.28,20,14,10,5,2,,0.00,7,,39
2013-2-10,46,37,28,36,33,28,100,85,59,30.40,30.37,30.34,15,14,8,8,2,,0.00,4,Fog-Rain,311
2013-2-11,43,40,36,41,39,36,100,94,79,30.35,30.34,30.33,15,5,1,9,2,,0.03,8,Rain,218
2013-2-12,48,44,39,43,42,39,100,90,77,30.39,30.32,30.23,20,12,4,18,6,26,0.08,8,Rain,206
2013-2-13,49,44,39,41,39,37,93,81,68,30.49,30.39,30.26,20,14,10,15,10,,0.00,6,,204
2013-2-14,44,41,38,43,40,37,100,93,87,30.60,30.55,30.48,15,7,2,8,3,,0.12,8,Rain,26
2013-2-15,53,45,37,43,40,37,100,90,58,30.60,30.43,30.19,20,7,1,7,4,,0.00,5,Fog-Rain,36
2013-2-16,51,45,39,43,40,37,100,87,62,30.18,30.12,30.09,20,11,2,18,7,25,0.16,7,Rain,205
2013-2-17,45,40,34,37,35,32,93,78,58,30.25,30.20,30.16,20,14,7,14,6,20,0.00,6,Rain,227
2013-2-18,42,38,34,37,35,34,93,88,69,30.13,29.95,29.80,20,15,10,7,5,,0.01,7,Rain,34
2013-2-19,49,40,30,36,32,30,100,83,54,30.00,29.87,29.79,15,15,15,10,5,,0.00,3,,8
2013-2-20,38,32,27,36,33,27,100,93,81,30.05,30.03,30.01,20,12,2,8,3,,0.08,7,Fog-Rain,33
2013-2-21,42,38,33,39,37,34,100,91,76,30.04,30.00,29.98,20,11,1,18,6,23,0.16,8,Rain,182
2013-2-22,46,42,38,40,37,32,100,84,66,30.01,29.77,29.62,20,11,3,28,14,36,0.39,7,Rain,186
2013-2-23,48,42,37,37,35,32,93,77,51,30.34,30.13,29.83,20,14,10,20,9,23,0.00,6,Rain,202
2013-2-24,46,41,36,39,37,36,93,80,57,30.35,30.20,29.91,20,13,10,16,9,26,0.04,8,Rain,181
2013-2-25,44,42,39,39,37,34,93,85,76,30.26,29.97,29.83,15,9,2,32,18,44,0.28,7,Rain,186
2013-2-26,47,40,32,37,35,32,100,83,57,30.33,30.27,30.17,20,13,8,8,5,,0.12,8,Rain,113
2013-2-27,46,39,32,39,37,34,100,89,66,30.32,30.28,30.19,20,14,5,8,5,,0.16,7,Fog-Rain,15
2013-2-28,41,38,36,40,37,34,100,93,76,30.30,30.25,30.22,20,8,2,14,6,17,0.59,7,Rain,35